sensor_id;sensor_type;location;lat;lon;timestamp;P1;durP1;ratioP1;P2;durP2;ratioP2
28774;SDS011;15926;51.348;6.596;2023-07-30T04:03:32;5.30;;;2.92;;
28774;SDS011;15926;51.348;6.596;2023-07-30T04:05:58;13.07;;;3.22;;
28774;SDS011;15926;51.348;6.596;2023-07-30T04:08:24;5.80;;;2.45;;
28774;SDS011;15926;51.348;6.596;2023-07-30T04:10:50;7.85;;;2.88;;
28774;SDS011;15926;51.348;6.596;2023-07-30T04:13:16;6.15;;;2.65;;
28774;SDS011;15926;51.348;6.596;2023-07-30T04:15:42;6.05;;;3.10;;
28774;SDS011;15926;51.348;6.596;2023-07-30T04:18:08;9.60;;;2.90;;
28774;SDS011;15926;51.348;6.596;2023-07-30T04:20:34;3.50;;;2.70;;
28774;SDS011;15926;51.348;6.596;2023-07-30T04:23:00;9.93;;;2.97;;
28774;SDS011;15926;51.348;6.596;2023-07-30T04:25:26;5.40;;;3.13;;
28774;SDS011;15926;51.348;6.596;2023-07-30T04:27:52;6.53;;;2.47;;
28774;SDS011;15926;51.348;6.596;2023-07-30T04:30:18;7.97;;;2.65;;
28774;SDS011;15926;51.348;6.596;2023-07-30T04:32:44;8.70;;;2.70;;
28774;SDS011;15926;51.348;6.596;2023-07-30T04:35:10;7.78;;;2.45;;
28774;SDS011;15926;51.348;6.596;2023-07-30T04:37:36;3.65;;;2.53;;
28774;SDS011;15926;51.348;6.596;2023-07-30T04:40:02;11.52;;;3.63;;
28774;SDS011;15926;51.348;6.596;2023-07-30T04:42:28;6.35;;;2.97;;
28774;SDS011;15926;51.348;6.596;2023-07-30T04:44:54;8.95;;;2.97;;
28774;SDS011;15926;51.348;6.596;2023-07-30T04:47:20;11.02;;;2.47;;
28774;SDS011;15926;51.348;6.596;2023-07-30T04:49:46;5.10;;;2.92;;
28774;SDS011;15926;51.348;6.596;2023-07-30T04:52:12;7.85;;;2.47;;
28774;SDS011;15926;51.348;6.596;2023-07-30T04:54:38;8.57;;;2.60;;
28774;SDS011;15926;51.348;6.596;2023-07-30T04:57:04;9.15;;;2.70;;
28774;SDS011;15926;51.348;6.596;2023-07-30T04:59:30;8.15;;;3.25;;
28774;SDS011;15926;51.348;6.596;2023-07-30T05:01:58;9.50;;;2.88;;
28774;SDS011;15926;51.348;6.596;2023-07-30T05:04:24;9.70;;;2.70;;
28774;SDS011;15926;51.348;6.596;2023-07-30T05:06:50;9.02;;;3.05;;
28774;SDS011;15926;51.348;6.596;2023-07-30T05:09:16;7.68;;;2.80;;
28774;SDS011;15926;51.348;6.596;2023-07-30T05:11:42;9.82;;;2.85;;
28774;SDS011;15926;51.348;6.596;2023-07-30T05:14:08;6.93;;;2.03;;
28774;SDS011;15926;51.348;6.596;2023-07-30T05:16:34;7.20;;;2.80;;
28774;SDS011;15926;51.348;6.596;2023-07-30T05:19:01;10.05;;;3.20;;
28774;SDS011;15926;51.348;6.596;2023-07-30T05:21:27;10.82;;;3.17;;
28774;SDS011;15926;51.348;6.596;2023-07-30T05:23:53;5.00;;;2.17;;
28774;SDS011;15926;51.348;6.596;2023-07-30T05:26:19;8.70;;;2.63;;
28774;SDS011;15926;51.348;6.596;2023-07-30T05:28:45;10.88;;;3.15;;
28774;SDS011;15926;51.348;6.596;2023-07-30T05:31:11;3.80;;;2.00;;
28774;SDS011;15926;51.348;6.596;2023-07-30T05:33:37;6.95;;;2.58;;
28774;SDS011;15926;51.348;6.596;2023-07-30T05:36:03;7.65;;;3.22;;
28774;SDS011;15926;51.348;6.596;2023-07-30T05:38:31;5.25;;;2.25;;
28774;SDS011;15926;51.348;6.596;2023-07-30T05:40:56;7.22;;;2.15;;
28774;SDS011;15926;51.348;6.596;2023-07-30T05:43:23;4.03;;;2.42;;
28774;SDS011;15926;51.348;6.596;2023-07-30T05:45:49;6.47;;;2.10;;
28774;SDS011;15926;51.348;6.596;2023-07-30T05:48:15;3.88;;;1.70;;
28774;SDS011;15926;51.348;6.596;2023-07-30T05:50:41;6.97;;;2.03;;
28774;SDS011;15926;51.348;6.596;2023-07-30T05:53:07;6.80;;;2.63;;
28774;SDS011;15926;51.348;6.596;2023-07-30T05:55:32;4.75;;;1.60;;
28774;SDS011;15926;51.348;6.596;2023-07-30T05:57:58;8.63;;;1.88;;
28774;SDS011;15926;51.348;6.596;2023-07-30T06:00:24;7.88;;;1.77;;
28774;SDS011;15926;51.348;6.596;2023-07-30T06:02:50;9.63;;;1.63;;
28774;SDS011;15926;51.348;6.596;2023-07-30T06:05:17;4.55;;;1.50;;
28774;SDS011;15926;51.348;6.596;2023-07-30T06:07:43;7.28;;;1.73;;
28774;SDS011;15926;51.348;6.596;2023-07-30T06:10:09;4.65;;;1.48;;
28774;SDS011;15926;51.348;6.596;2023-07-30T06:12:35;7.90;;;1.95;;
28774;SDS011;15926;51.348;6.596;2023-07-30T06:15:01;2.35;;;1.30;;
28774;SDS011;15926;51.348;6.596;2023-07-30T06:17:27;6.80;;;1.85;;
28774;SDS011;15926;51.348;6.596;2023-07-30T06:19:53;6.70;;;1.50;;
28774;SDS011;15926;51.348;6.596;2023-07-30T06:22:19;6.55;;;1.40;;
28774;SDS011;15926;51.348;6.596;2023-07-30T06:24:45;7.20;;;2.10;;
28774;SDS011;15926;51.348;6.596;2023-07-30T06:27:11;9.88;;;1.67;;
28774;SDS011;15926;51.348;6.596;2023-07-30T06:29:37;7.85;;;1.58;;
28774;SDS011;15926;51.348;6.596;2023-07-30T06:32:03;3.33;;;1.50;;
28774;SDS011;15926;51.348;6.596;2023-07-30T06:34:29;2.85;;;1.30;;
28774;SDS011;15926;51.348;6.596;2023-07-30T06:36:55;6.50;;;1.50;;
28774;SDS011;15926;51.348;6.596;2023-07-30T06:39:21;9.27;;;1.73;;
28774;SDS011;15926;51.348;6.596;2023-07-30T06:41:47;7.40;;;1.77;;
28774;SDS011;15926;51.348;6.596;2023-07-30T06:44:13;7.60;;;1.40;;
28774;SDS011;15926;51.348;6.596;2023-07-30T06:46:39;5.20;;;1.33;;
28774;SDS011;15926;51.348;6.596;2023-07-30T06:49:05;12.20;;;1.75;;
28774;SDS011;15926;51.348;6.596;2023-07-30T06:51:31;9.20;;;1.65;;
28774;SDS011;15926;51.348;6.596;2023-07-30T06:53:57;9.70;;;1.90;;
28774;SDS011;15926;51.348;6.596;2023-07-30T06:56:23;6.22;;;2.00;;
28774;SDS011;15926;51.348;6.596;2023-07-30T06:58:49;11.98;;;1.83;;
28774;SDS011;15926;51.348;6.596;2023-07-30T07:01:15;3.67;;;1.30;;
28774;SDS011;15926;51.348;6.596;2023-07-30T07:03:41;6.20;;;1.80;;
28774;SDS011;15926;51.348;6.596;2023-07-30T07:06:07;6.18;;;1.65;;
28774;SDS011;15926;51.348;6.596;2023-07-30T07:08:33;8.70;;;1.90;;
28774;SDS011;15926;51.348;6.596;2023-07-30T07:10:59;6.68;;;1.95;;
28774;SDS011;15926;51.348;6.596;2023-07-30T07:13:25;6.72;;;1.85;;
28774;SDS011;15926;51.348;6.596;2023-07-30T07:15:51;8.70;;;2.05;;
28774;SDS011;15926;51.348;6.596;2023-07-30T07:18:17;10.23;;;1.60;;
28774;SDS011;15926;51.348;6.596;2023-07-30T07:20:43;10.68;;;1.60;;
28774;SDS011;15926;51.348;6.596;2023-07-30T07:23:09;8.20;;;1.55;;
28774;SDS011;15926;51.348;6.596;2023-07-30T07:25:35;6.30;;;1.60;;
28774;SDS011;15926;51.348;6.596;2023-07-30T07:28:02;9.57;;;2.10;;
28774;SDS011;15926;51.348;6.596;2023-07-30T07:30:28;8.30;;;1.70;;
28774;SDS011;15926;51.348;6.596;2023-07-30T07:32:54;4.55;;;2.00;;
28774;SDS011;15926;51.348;6.596;2023-07-30T07:35:20;7.18;;;1.73;;
28774;SDS011;15926;51.348;6.596;2023-07-30T07:37:47;9.93;;;1.80;;
28774;SDS011;15926;51.348;6.596;2023-07-30T07:40:13;9.50;;;2.10;;
28774;SDS011;15926;51.348;6.596;2023-07-30T07:42:39;5.75;;;1.92;;
28774;SDS011;15926;51.348;6.596;2023-07-30T07:45:08;6.68;;;1.80;;
28774;SDS011;15926;51.348;6.596;2023-07-30T07:47:34;10.60;;;2.17;;
28774;SDS011;15926;51.348;6.596;2023-07-30T07:50:00;8.52;;;2.60;;
28774;SDS011;15926;51.348;6.596;2023-07-30T07:52:26;6.20;;;1.85;;
28774;SDS011;15926;51.348;6.596;2023-07-30T07:54:52;11.85;;;2.63;;
28774;SDS011;15926;51.348;6.596;2023-07-30T07:57:18;13.02;;;2.13;;
28774;SDS011;15926;51.348;6.596;2023-07-30T07:59:44;9.68;;;2.20;;
28774;SDS011;15926;51.348;6.596;2023-07-30T08:02:13;9.25;;;2.35;;
28774;SDS011;15926;51.348;6.596;2023-07-30T08:04:39;10.80;;;2.40;;
28774;SDS011;15926;51.348;6.596;2023-07-30T08:07:05;7.28;;;2.25;;
28774;SDS011;15926;51.348;6.596;2023-07-30T08:09:31;5.82;;;2.20;;
28774;SDS011;15926;51.348;6.596;2023-07-30T08:11:58;12.65;;;2.33;;
28774;SDS011;15926;51.348;6.596;2023-07-30T08:14:24;9.40;;;2.75;;
28774;SDS011;15926;51.348;6.596;2023-07-30T08:16:50;11.60;;;2.25;;
28774;SDS011;15926;51.348;6.596;2023-07-30T08:19:16;10.82;;;2.30;;
28774;SDS011;15926;51.348;6.596;2023-07-30T08:21:45;8.05;;;2.20;;
28774;SDS011;15926;51.348;6.596;2023-07-30T08:24:11;8.60;;;2.22;;
28774;SDS011;15926;51.348;6.596;2023-07-30T08:26:37;11.68;;;2.00;;
28774;SDS011;15926;51.348;6.596;2023-07-30T08:29:03;11.73;;;2.72;;
28774;SDS011;15926;51.348;6.596;2023-07-30T08:31:31;7.85;;;2.53;;
28774;SDS011;15926;51.348;6.596;2023-07-30T08:33:57;8.32;;;2.15;;
28774;SDS011;15926;51.348;6.596;2023-07-30T08:36:23;9.13;;;1.70;;
28774;SDS011;15926;51.348;6.596;2023-07-30T08:38:49;5.32;;;2.05;;
28774;SDS011;15926;51.348;6.596;2023-07-30T08:41:15;11.15;;;2.17;;
28774;SDS011;15926;51.348;6.596;2023-07-30T08:43:41;11.38;;;2.63;;
28774;SDS011;15926;51.348;6.596;2023-07-30T08:46:07;8.93;;;1.98;;
28774;SDS011;15926;51.348;6.596;2023-07-30T08:48:33;10.48;;;2.72;;
28774;SDS011;15926;51.348;6.596;2023-07-30T08:50:59;8.57;;;2.55;;
28774;SDS011;15926;51.348;6.596;2023-07-30T08:53:25;9.27;;;2.53;;
28774;SDS011;15926;51.348;6.596;2023-07-30T08:55:52;5.15;;;2.20;;
28774;SDS011;15926;51.348;6.596;2023-07-30T08:58:19;8.23;;;1.70;;
28774;SDS011;15926;51.348;6.596;2023-07-30T09:00:45;7.55;;;1.98;;
28774;SDS011;15926;51.348;6.596;2023-07-30T09:03:11;9.85;;;2.40;;
28774;SDS011;15926;51.348;6.596;2023-07-30T09:05:39;5.55;;;1.85;;
28774;SDS011;15926;51.348;6.596;2023-07-30T09:08:05;10.50;;;2.08;;
28774;SDS011;15926;51.348;6.596;2023-07-30T09:10:31;6.55;;;2.35;;
28774;SDS011;15926;51.348;6.596;2023-07-30T09:12:57;11.90;;;2.55;;
28774;SDS011;15926;51.348;6.596;2023-07-30T09:15:30;7.38;;;1.88;;
28774;SDS011;15926;51.348;6.596;2023-07-30T09:18:02;8.52;;;2.17;;
28774;SDS011;15926;51.348;6.596;2023-07-30T09:20:28;5.50;;;1.50;;
28774;SDS011;15926;51.348;6.596;2023-07-30T09:23:01;14.32;;;2.20;;
28774;SDS011;15926;51.348;6.596;2023-07-30T09:25:27;6.78;;;1.98;;
28774;SDS011;15926;51.348;6.596;2023-07-30T09:27:53;9.65;;;2.63;;
28774;SDS011;15926;51.348;6.596;2023-07-30T09:30:22;9.00;;;2.42;;
28774;SDS011;15926;51.348;6.596;2023-07-30T09:32:50;5.90;;;1.90;;
28774;SDS011;15926;51.348;6.596;2023-07-30T09:35:17;7.77;;;1.80;;
28774;SDS011;15926;51.348;6.596;2023-07-30T09:37:43;5.65;;;1.65;;
28774;SDS011;15926;51.348;6.596;2023-07-30T09:40:10;12.50;;;1.90;;
28774;SDS011;15926;51.348;6.596;2023-07-30T09:42:37;5.93;;;1.50;;
28774;SDS011;15926;51.348;6.596;2023-07-30T09:45:08;6.28;;;1.70;;
28774;SDS011;15926;51.348;6.596;2023-07-30T09:47:36;9.73;;;1.55;;
28774;SDS011;15926;51.348;6.596;2023-07-30T09:50:02;7.80;;;1.77;;
28774;SDS011;15926;51.348;6.596;2023-07-30T09:52:29;10.35;;;2.17;;
28774;SDS011;15926;51.348;6.596;2023-07-30T09:54:57;6.70;;;1.58;;
28774;SDS011;15926;51.348;6.596;2023-07-30T09:57:24;7.53;;;1.50;;
28774;SDS011;15926;51.348;6.596;2023-07-30T09:59:50;8.80;;;1.73;;
28774;SDS011;15926;51.348;6.596;2023-07-30T10:02:18;4.53;;;1.30;;
28774;SDS011;15926;51.348;6.596;2023-07-30T10:04:44;5.97;;;1.70;;
28774;SDS011;15926;51.348;6.596;2023-07-30T10:07:14;4.23;;;1.40;;
28774;SDS011;15926;51.348;6.596;2023-07-30T10:09:45;3.47;;;1.15;;
28774;SDS011;15926;51.348;6.596;2023-07-30T10:12:13;13.55;;;2.08;;
28774;SDS011;15926;51.348;6.596;2023-07-30T10:14:41;6.35;;;1.35;;
28774;SDS011;15926;51.348;6.596;2023-07-30T10:17:09;6.88;;;1.20;;
28774;SDS011;15926;51.348;6.596;2023-07-30T10:19:35;6.75;;;1.63;;
28774;SDS011;15926;51.348;6.596;2023-07-30T10:22:19;6.95;;;1.33;;
28774;SDS011;15926;51.348;6.596;2023-07-30T10:24:55;5.05;;;1.13;;
28774;SDS011;15926;51.348;6.596;2023-07-30T10:27:26;5.90;;;1.50;;
28774;SDS011;15926;51.348;6.596;2023-07-30T10:30:14;6.80;;;1.63;;
28774;SDS011;15926;51.348;6.596;2023-07-30T10:35:43;6.55;;;1.13;;
28774;SDS011;15926;51.348;6.596;2023-07-30T10:38:14;4.20;;;1.27;;
28774;SDS011;15926;51.348;6.596;2023-07-30T10:40:41;3.75;;;1.63;;
28774;SDS011;15926;51.348;6.596;2023-07-30T10:43:16;2.38;;;1.10;;
28774;SDS011;15926;51.348;6.596;2023-07-30T10:45:51;6.50;;;1.90;;
28774;SDS011;15926;51.348;6.596;2023-07-30T10:48:17;6.53;;;1.55;;
28774;SDS011;15926;51.348;6.596;2023-07-30T10:50:44;8.80;;;1.60;;
28774;SDS011;15926;51.348;6.596;2023-07-30T10:53:14;4.95;;;1.25;;
28774;SDS011;15926;51.348;6.596;2023-07-30T10:55:41;5.00;;;1.45;;
28774;SDS011;15926;51.348;6.596;2023-07-30T10:58:07;7.05;;;1.60;;
28774;SDS011;15926;51.348;6.596;2023-07-30T11:00:33;6.00;;;1.40;;
28774;SDS011;15926;51.348;6.596;2023-07-30T11:02:59;4.90;;;1.55;;
28774;SDS011;15926;51.348;6.596;2023-07-30T11:05:25;3.97;;;1.35;;
28774;SDS011;15926;51.348;6.596;2023-07-30T11:07:51;4.13;;;1.25;;
28774;SDS011;15926;51.348;6.596;2023-07-30T11:10:18;4.38;;;1.00;;
28774;SDS011;15926;51.348;6.596;2023-07-30T11:12:44;8.77;;;1.42;;
28774;SDS011;15926;51.348;6.596;2023-07-30T11:15:10;6.55;;;1.40;;
28774;SDS011;15926;51.348;6.596;2023-07-30T11:17:36;3.78;;;1.23;;
28774;SDS011;15926;51.348;6.596;2023-07-30T11:20:02;5.93;;;1.30;;
28774;SDS011;15926;51.348;6.596;2023-07-30T11:22:31;5.20;;;1.48;;
28774;SDS011;15926;51.348;6.596;2023-07-30T11:24:58;5.88;;;1.27;;
28774;SDS011;15926;51.348;6.596;2023-07-30T11:27:26;7.18;;;1.48;;
28774;SDS011;15926;51.348;6.596;2023-07-30T11:29:55;5.82;;;1.23;;
28774;SDS011;15926;51.348;6.596;2023-07-30T11:32:22;4.15;;;1.20;;
28774;SDS011;15926;51.348;6.596;2023-07-30T11:34:51;3.67;;;1.27;;
28774;SDS011;15926;51.348;6.596;2023-07-30T11:37:19;5.80;;;1.48;;
28774;SDS011;15926;51.348;6.596;2023-07-30T11:39:45;4.35;;;1.10;;
28774;SDS011;15926;51.348;6.596;2023-07-30T11:42:11;5.65;;;1.27;;
28774;SDS011;15926;51.348;6.596;2023-07-30T11:44:38;3.15;;;1.13;;
28774;SDS011;15926;51.348;6.596;2023-07-30T11:47:04;3.15;;;1.10;;
28774;SDS011;15926;51.348;6.596;2023-07-30T11:49:31;3.90;;;1.40;;
28774;SDS011;15926;51.348;6.596;2023-07-30T11:52:09;5.93;;;1.30;;
28774;SDS011;15926;51.348;6.596;2023-07-30T11:57:02;1.15;;;0.60;;
28774;SDS011;15926;51.348;6.596;2023-07-30T11:59:28;2.00;;;1.13;;
28774;SDS011;15926;51.348;6.596;2023-07-30T12:01:54;3.08;;;0.93;;
28774;SDS011;15926;51.348;6.596;2023-07-30T12:04:20;2.92;;;0.70;;
28774;SDS011;15926;51.348;6.596;2023-07-30T12:06:47;4.90;;;1.20;;
28774;SDS011;15926;51.348;6.596;2023-07-30T12:09:14;6.03;;;1.30;;
28774;SDS011;15926;51.348;6.596;2023-07-30T12:11:44;6.20;;;1.40;;
28774;SDS011;15926;51.348;6.596;2023-07-30T12:14:10;3.22;;;0.80;;
28774;SDS011;15926;51.348;6.596;2023-07-30T12:16:36;3.60;;;0.73;;
28774;SDS011;15926;51.348;6.596;2023-07-30T12:19:02;4.80;;;0.82;;
28774;SDS011;15926;51.348;6.596;2023-07-30T12:21:29;2.67;;;1.00;;
28774;SDS011;15926;51.348;6.596;2023-07-30T12:23:54;3.90;;;0.98;;
28774;SDS011;15926;51.348;6.596;2023-07-30T12:26:20;1.88;;;0.90;;
28774;SDS011;15926;51.348;6.596;2023-07-30T12:28:50;2.05;;;0.85;;
28774;SDS011;15926;51.348;6.596;2023-07-30T12:31:16;0.82;;;0.65;;
28774;SDS011;15926;51.348;6.596;2023-07-30T12:33:43;4.25;;;0.95;;
28774;SDS011;15926;51.348;6.596;2023-07-30T12:36:09;3.65;;;1.30;;
28774;SDS011;15926;51.348;6.596;2023-07-30T12:38:35;2.67;;;1.00;;
28774;SDS011;15926;51.348;6.596;2023-07-30T12:41:01;3.10;;;0.90;;
28774;SDS011;15926;51.348;6.596;2023-07-30T12:43:27;5.32;;;1.02;;
28774;SDS011;15926;51.348;6.596;2023-07-30T12:45:53;3.63;;;1.08;;
28774;SDS011;15926;51.348;6.596;2023-07-30T12:48:19;2.63;;;0.80;;
28774;SDS011;15926;51.348;6.596;2023-07-30T12:50:45;5.53;;;0.80;;
28774;SDS011;15926;51.348;6.596;2023-07-30T12:53:11;2.58;;;1.00;;
28774;SDS011;15926;51.348;6.596;2023-07-30T12:55:37;2.53;;;0.73;;
28774;SDS011;15926;51.348;6.596;2023-07-30T12:58:04;4.20;;;1.00;;
28774;SDS011;15926;51.348;6.596;2023-07-30T13:00:30;4.38;;;1.00;;
28774;SDS011;15926;51.348;6.596;2023-07-30T13:02:56;5.78;;;0.98;;
28774;SDS011;15926;51.348;6.596;2023-07-30T13:05:22;4.15;;;1.23;;
28774;SDS011;15926;51.348;6.596;2023-07-30T13:07:48;4.82;;;1.30;;
28774;SDS011;15926;51.348;6.596;2023-07-30T13:10:14;4.07;;;1.10;;
28774;SDS011;15926;51.348;6.596;2023-07-30T13:12:40;4.00;;;0.90;;
28774;SDS011;15926;51.348;6.596;2023-07-30T13:15:07;4.38;;;1.40;;
28774;SDS011;15926;51.348;6.596;2023-07-30T13:17:33;2.28;;;1.02;;
28774;SDS011;15926;51.348;6.596;2023-07-30T13:19:59;4.05;;;1.10;;
28774;SDS011;15926;51.348;6.596;2023-07-30T13:22:25;4.60;;;0.90;;
28774;SDS011;15926;51.348;6.596;2023-07-30T13:24:51;2.75;;;0.85;;
28774;SDS011;15926;51.348;6.596;2023-07-30T13:27:18;3.40;;;1.10;;
28774;SDS011;15926;51.348;6.596;2023-07-30T13:29:44;2.17;;;0.93;;
28774;SDS011;15926;51.348;6.596;2023-07-30T13:32:10;3.45;;;1.20;;
28774;SDS011;15926;51.348;6.596;2023-07-30T13:34:36;2.60;;;1.00;;
28774;SDS011;15926;51.348;6.596;2023-07-30T13:37:02;2.95;;;1.10;;
28774;SDS011;15926;51.348;6.596;2023-07-30T13:39:28;5.43;;;1.13;;
28774;SDS011;15926;51.348;6.596;2023-07-30T13:41:54;5.28;;;1.30;;
28774;SDS011;15926;51.348;6.596;2023-07-30T13:44:20;4.65;;;1.00;;
28774;SDS011;15926;51.348;6.596;2023-07-30T13:46:46;3.15;;;1.00;;
28774;SDS011;15926;51.348;6.596;2023-07-30T13:49:12;4.85;;;1.25;;
28774;SDS011;15926;51.348;6.596;2023-07-30T13:51:38;3.33;;;0.80;;
28774;SDS011;15926;51.348;6.596;2023-07-30T13:54:04;4.05;;;1.00;;
28774;SDS011;15926;51.348;6.596;2023-07-30T13:56:32;4.38;;;1.05;;
28774;SDS011;15926;51.348;6.596;2023-07-30T13:58:58;3.13;;;0.90;;
28774;SDS011;15926;51.348;6.596;2023-07-30T14:01:25;2.92;;;0.82;;
28774;SDS011;15926;51.348;6.596;2023-07-30T14:03:51;4.15;;;1.30;;
28774;SDS011;15926;51.348;6.596;2023-07-30T14:06:17;2.38;;;0.93;;
28774;SDS011;15926;51.348;6.596;2023-07-30T14:08:43;3.97;;;1.10;;
28774;SDS011;15926;51.348;6.596;2023-07-30T14:11:09;4.85;;;1.10;;
28774;SDS011;15926;51.348;6.596;2023-07-30T14:13:35;5.93;;;1.45;;
28774;SDS011;15926;51.348;6.596;2023-07-30T14:16:01;4.65;;;0.93;;
28774;SDS011;15926;51.348;6.596;2023-07-30T14:18:27;3.83;;;0.90;;
28774;SDS011;15926;51.348;6.596;2023-07-30T14:20:53;4.72;;;1.40;;
28774;SDS011;15926;51.348;6.596;2023-07-30T14:23:19;3.22;;;0.73;;
28774;SDS011;15926;51.348;6.596;2023-07-30T14:25:45;2.28;;;1.00;;
28774;SDS011;15926;51.348;6.596;2023-07-30T14:28:11;3.38;;;1.17;;
28774;SDS011;15926;51.348;6.596;2023-07-30T14:30:39;2.80;;;1.10;;
28774;SDS011;15926;51.348;6.596;2023-07-30T14:33:09;2.67;;;1.20;;
28774;SDS011;15926;51.348;6.596;2023-07-30T14:35:35;5.40;;;1.00;;
28774;SDS011;15926;51.348;6.596;2023-07-30T14:38:03;2.42;;;0.93;;
28774;SDS011;15926;51.348;6.596;2023-07-30T14:40:29;3.65;;;0.90;;
28774;SDS011;15926;51.348;6.596;2023-07-30T14:42:55;3.17;;;1.30;;
28774;SDS011;15926;51.348;6.596;2023-07-30T14:45:21;3.88;;;0.77;;
28774;SDS011;15926;51.348;6.596;2023-07-30T14:47:47;1.85;;;0.70;;
28774;SDS011;15926;51.348;6.596;2023-07-30T14:50:13;3.17;;;0.80;;
28774;SDS011;15926;51.348;6.596;2023-07-30T14:52:40;6.53;;;1.15;;
28774;SDS011;15926;51.348;6.596;2023-07-30T14:55:06;5.50;;;1.00;;
28774;SDS011;15926;51.348;6.596;2023-07-30T14:57:32;3.50;;;0.98;;
28774;SDS011;15926;51.348;6.596;2023-07-30T14:59:58;1.95;;;1.00;;
28774;SDS011;15926;51.348;6.596;2023-07-30T15:02:25;4.80;;;1.10;;
28774;SDS011;15926;51.348;6.596;2023-07-30T15:04:53;5.32;;;1.00;;
28774;SDS011;15926;51.348;6.596;2023-07-30T15:07:19;4.40;;;1.02;;
28774;SDS011;15926;51.348;6.596;2023-07-30T15:09:45;3.38;;;1.00;;
28774;SDS011;15926;51.348;6.596;2023-07-30T15:12:11;3.47;;;1.45;;
28774;SDS011;15926;51.348;6.596;2023-07-30T15:14:38;3.45;;;1.08;;
28774;SDS011;15926;51.348;6.596;2023-07-30T15:17:04;1.50;;;0.70;;
28774;SDS011;15926;51.348;6.596;2023-07-30T15:19:31;2.55;;;0.82;;
28774;SDS011;15926;51.348;6.596;2023-07-30T15:21:57;4.22;;;0.98;;
28774;SDS011;15926;51.348;6.596;2023-07-30T15:24:23;6.68;;;1.13;;
28774;SDS011;15926;51.348;6.596;2023-07-30T15:26:49;2.42;;;1.02;;
28774;SDS011;15926;51.348;6.596;2023-07-30T15:29:15;3.78;;;1.20;;
28774;SDS011;15926;51.348;6.596;2023-07-30T15:31:41;5.13;;;1.05;;
28774;SDS011;15926;51.348;6.596;2023-07-30T15:34:07;2.40;;;1.13;;
28774;SDS011;15926;51.348;6.596;2023-07-30T15:36:33;4.45;;;1.05;;
28774;SDS011;15926;51.348;6.596;2023-07-30T15:38:59;2.90;;;0.90;;
28774;SDS011;15926;51.348;6.596;2023-07-30T15:41:25;1.35;;;1.13;;
28774;SDS011;15926;51.348;6.596;2023-07-30T15:43:51;3.90;;;1.17;;
28774;SDS011;15926;51.348;6.596;2023-07-30T15:46:18;5.70;;;1.13;;
28774;SDS011;15926;51.348;6.596;2023-07-30T15:48:49;1.55;;;1.05;;
28774;SDS011;15926;51.348;6.596;2023-07-30T15:51:15;3.17;;;0.93;;
28774;SDS011;15926;51.348;6.596;2023-07-30T15:53:41;2.65;;;1.13;;
28774;SDS011;15926;51.348;6.596;2023-07-30T15:56:09;3.85;;;1.00;;
28774;SDS011;15926;51.348;6.596;2023-07-30T15:58:35;2.30;;;1.00;;
28774;SDS011;15926;51.348;6.596;2023-07-30T16:01:05;3.10;;;1.17;;
28774;SDS011;15926;51.348;6.596;2023-07-30T16:03:34;5.40;;;1.30;;
28774;SDS011;15926;51.348;6.596;2023-07-30T16:06:02;5.30;;;1.00;;
28774;SDS011;15926;51.348;6.596;2023-07-30T16:08:28;3.60;;;1.20;;
28774;SDS011;15926;51.348;6.596;2023-07-30T16:11:04;3.30;;;1.08;;
28774;SDS011;15926;51.348;6.596;2023-07-30T16:13:30;3.08;;;1.15;;
28774;SDS011;15926;51.348;6.596;2023-07-30T16:15:56;2.45;;;0.93;;
28774;SDS011;15926;51.348;6.596;2023-07-30T16:18:22;5.88;;;1.20;;
28774;SDS011;15926;51.348;6.596;2023-07-30T16:20:48;2.72;;;0.80;;
28774;SDS011;15926;51.348;6.596;2023-07-30T16:23:14;6.10;;;1.55;;
28774;SDS011;15926;51.348;6.596;2023-07-30T16:25:40;2.00;;;1.05;;
28774;SDS011;15926;51.348;6.596;2023-07-30T16:28:06;5.13;;;0.80;;
28774;SDS011;15926;51.348;6.596;2023-07-30T16:30:32;3.80;;;0.77;;
28774;SDS011;15926;51.348;6.596;2023-07-30T16:32:58;6.50;;;1.55;;
28774;SDS011;15926;51.348;6.596;2023-07-30T16:35:24;6.50;;;1.27;;
28774;SDS011;15926;51.348;6.596;2023-07-30T16:37:50;4.10;;;1.25;;
28774;SDS011;15926;51.348;6.596;2023-07-30T16:40:16;3.55;;;1.20;;
28774;SDS011;15926;51.348;6.596;2023-07-30T16:42:42;3.75;;;0.80;;
28774;SDS011;15926;51.348;6.596;2023-07-30T16:45:08;2.95;;;0.98;;
28774;SDS011;15926;51.348;6.596;2023-07-30T16:47:34;4.85;;;1.05;;
28774;SDS011;15926;51.348;6.596;2023-07-30T16:50:00;4.72;;;0.85;;
28774;SDS011;15926;51.348;6.596;2023-07-30T16:52:26;6.78;;;1.10;;
28774;SDS011;15926;51.348;6.596;2023-07-30T16:54:52;5.80;;;1.17;;
28774;SDS011;15926;51.348;6.596;2023-07-30T16:57:18;2.50;;;0.90;;
28774;SDS011;15926;51.348;6.596;2023-07-30T16:59:44;2.15;;;1.17;;
28774;SDS011;15926;51.348;6.596;2023-07-30T17:02:10;3.03;;;0.90;;
28774;SDS011;15926;51.348;6.596;2023-07-30T17:04:36;4.50;;;0.95;;
28774;SDS011;15926;51.348;6.596;2023-07-30T17:07:02;4.82;;;1.17;;
28774;SDS011;15926;51.348;6.596;2023-07-30T17:09:28;2.38;;;0.95;;
28774;SDS011;15926;51.348;6.596;2023-07-30T17:11:54;4.07;;;0.90;;
28774;SDS011;15926;51.348;6.596;2023-07-30T17:14:20;4.20;;;0.93;;
28774;SDS011;15926;51.348;6.596;2023-07-30T17:16:46;2.70;;;1.08;;
28774;SDS011;15926;51.348;6.596;2023-07-30T17:19:12;3.20;;;1.00;;
28774;SDS011;15926;51.348;6.596;2023-07-30T17:21:38;4.38;;;1.20;;
28774;SDS011;15926;51.348;6.596;2023-07-30T17:24:04;4.65;;;1.20;;
28774;SDS011;15926;51.348;6.596;2023-07-30T17:26:30;3.63;;;1.17;;
28774;SDS011;15926;51.348;6.596;2023-07-30T17:28:56;2.28;;;1.00;;
28774;SDS011;15926;51.348;6.596;2023-07-30T17:31:22;3.35;;;1.30;;
28774;SDS011;15926;51.348;6.596;2023-07-30T17:33:48;3.55;;;1.30;;
28774;SDS011;15926;51.348;6.596;2023-07-30T17:36:14;5.35;;;1.50;;
28774;SDS011;15926;51.348;6.596;2023-07-30T17:38:40;3.58;;;1.10;;
28774;SDS011;15926;51.348;6.596;2023-07-30T17:41:06;3.13;;;1.10;;
28774;SDS011;15926;51.348;6.596;2023-07-30T17:43:32;4.63;;;1.52;;
28774;SDS011;15926;51.348;6.596;2023-07-30T17:46:02;6.70;;;1.25;;
28774;SDS011;15926;51.348;6.596;2023-07-30T17:48:28;4.28;;;1.25;;
28774;SDS011;15926;51.348;6.596;2023-07-30T17:50:54;7.07;;;1.35;;
28774;SDS011;15926;51.348;6.596;2023-07-30T17:53:20;4.00;;;1.40;;
28774;SDS011;15926;51.348;6.596;2023-07-30T17:55:46;4.78;;;1.70;;
28774;SDS011;15926;51.348;6.596;2023-07-30T17:58:13;4.35;;;1.63;;
28774;SDS011;15926;51.348;6.596;2023-07-30T18:00:42;11.73;;;1.90;;
28774;SDS011;15926;51.348;6.596;2023-07-30T18:03:09;5.80;;;1.95;;
28774;SDS011;15926;51.348;6.596;2023-07-30T18:05:35;3.42;;;1.90;;
28774;SDS011;15926;51.348;6.596;2023-07-30T18:08:01;4.03;;;1.65;;
28774;SDS011;15926;51.348;6.596;2023-07-30T18:10:27;3.95;;;1.30;;
28774;SDS011;15926;51.348;6.596;2023-07-30T18:12:53;5.00;;;1.80;;
28774;SDS011;15926;51.348;6.596;2023-07-30T18:15:19;4.93;;;1.98;;
28774;SDS011;15926;51.348;6.596;2023-07-30T18:17:45;5.13;;;1.67;;
28774;SDS011;15926;51.348;6.596;2023-07-30T18:20:11;3.85;;;1.40;;
28774;SDS011;15926;51.348;6.596;2023-07-30T18:22:37;3.78;;;1.70;;
28774;SDS011;15926;51.348;6.596;2023-07-30T18:25:04;6.25;;;2.05;;
28774;SDS011;15926;51.348;6.596;2023-07-30T18:27:30;4.47;;;1.60;;
28774;SDS011;15926;51.348;6.596;2023-07-30T18:29:56;5.57;;;1.83;;
28774;SDS011;15926;51.348;6.596;2023-07-30T18:32:22;2.90;;;1.42;;
28774;SDS011;15926;51.348;6.596;2023-07-30T18:34:48;7.53;;;2.10;;
28774;SDS011;15926;51.348;6.596;2023-07-30T18:37:15;6.05;;;1.75;;
28774;SDS011;15926;51.348;6.596;2023-07-30T18:39:42;5.30;;;1.98;;
28774;SDS011;15926;51.348;6.596;2023-07-30T18:42:08;5.22;;;2.00;;
28774;SDS011;15926;51.348;6.596;2023-07-30T18:44:34;5.95;;;2.05;;
28774;SDS011;15926;51.348;6.596;2023-07-30T18:47:00;3.25;;;1.85;;
28774;SDS011;15926;51.348;6.596;2023-07-30T18:49:26;5.03;;;1.85;;